Ashburn Park, Illinois
Current Conditions -  °F | °C
As of 7:53 AM on Saturday 01 Nov 2014 (Local Time) from KMDW Reporting Station
Broken Clouds Broken Clouds  
Wind Chill: 30°   Ceiling: 3300
Heat Index: 40°   Visibility: 10mi
Dew Point: 27°   Wind: 20mph
Humidity: 60%   Direction: 40°NE
Pressure: 30.4"   Gusts: 26mph
Location:  41.7473°N, 87.7132°W
Report Text: KMDW 011253Z 04017G23KT 10SM BKN033 04/M03 A3040 RMK AO2 SLP305 T00441028
Loading
Personal Weather Stations






























Interactive Weather Map
Tropical Storm Tracking
New forecast layout! Learn more

10-Day Weather Forecast

Advertisements
Track Severe Weather on mobile